createdAt,value
2019-03-22T00:01:48.798Z,17.03
2019-03-22T00:04:37.131Z,15.50
2019-03-22T00:07:25.042Z,14.13
2019-03-22T00:10:13.446Z,20.33
2019-03-22T00:13:02.053Z,18.83
2019-03-22T00:15:50.483Z,18.30
2019-03-22T00:18:38.839Z,15.67
2019-03-22T00:21:27.356Z,16.87
2019-03-22T00:24:15.671Z,17.73
2019-03-22T00:27:15.679Z,14.03
2019-03-22T00:29:54.710Z,24.07
2019-03-22T00:32:42.820Z,15.37
2019-03-22T00:35:30.659Z,15.53
2019-03-22T00:38:19.087Z,15.33
2019-03-22T00:41:07.221Z,18.43
2019-03-22T00:43:55.462Z,17.70
2019-03-22T00:46:43.356Z,17.77
2019-03-22T00:49:31.632Z,14.70
2019-03-22T00:52:19.652Z,17.33
2019-03-22T00:55:07.644Z,19.83
2019-03-22T00:57:55.819Z,18.93
2019-03-22T01:00:44.339Z,16.90
2019-03-22T01:03:32.347Z,18.77
2019-03-22T01:06:21.255Z,16.30
2019-03-22T01:09:09.723Z,16.57
2019-03-22T01:11:57.941Z,18.50
2019-03-22T01:14:46.193Z,18.00
2019-03-22T01:17:34.545Z,19.53
2019-03-22T01:20:22.686Z,16.03
2019-03-22T01:23:11.765Z,18.47
2019-03-22T01:26:00.554Z,22.60
2019-03-22T01:28:48.868Z,20.40
2019-03-22T01:31:38.308Z,16.97
2019-03-22T01:34:26.733Z,18.07
2019-03-22T01:37:15.131Z,17.73
2019-03-22T01:40:03.458Z,18.30
2019-03-22T01:42:51.516Z,18.03
2019-03-22T01:45:39.820Z,16.90
2019-03-22T01:48:28.054Z,19.27
2019-03-22T01:51:16.041Z,17.40
2019-03-22T01:54:04.345Z,17.70
2019-03-22T01:56:53.136Z,20.97
2019-03-22T01:59:41.162Z,22.67
2019-03-22T02:02:29.862Z,20.97
2019-03-22T02:05:18.215Z,19.47
2019-03-22T02:08:06.537Z,17.87
2019-03-22T02:10:55.006Z,21.83
2019-03-22T02:13:43.229Z,19.73
2019-03-22T02:16:31.904Z,24.60
2019-03-22T02:19:20.206Z,21.50
2019-03-22T02:22:09.265Z,19.53
2019-03-22T02:24:57.197Z,19.07
2019-03-22T02:27:45.484Z,20.23
2019-03-22T02:30:33.715Z,21.67
2019-03-22T02:33:22.385Z,20.77
2019-03-22T02:36:10.896Z,21.87
2019-03-22T02:42:59.004Z,19.67
2019-03-22T02:45:46.891Z,21.67
2019-03-22T02:48:35.447Z,24.10
2019-03-22T02:51:23.964Z,22.70
2019-03-22T02:54:12.487Z,20.77
2019-03-22T02:57:01.101Z,20.63
2019-03-22T02:59:49.226Z,20.23
2019-03-22T03:02:37.483Z,22.27
2019-03-22T03:05:25.739Z,24.93
2019-03-22T03:08:14.342Z,20.47
2019-03-22T03:11:02.323Z,18.77
2019-03-22T03:13:50.900Z,19.40
2019-03-22T03:16:38.773Z,23.70
2019-03-22T03:19:27.073Z,20.63
2019-03-22T03:22:15.142Z,23.47
2019-03-22T03:25:03.702Z,23.47
2019-03-22T03:27:52.236Z,22.27
2019-03-22T03:30:40.401Z,22.33
2019-03-22T03:33:28.498Z,22.57
2019-03-22T03:36:16.630Z,22.17
2019-03-22T03:39:05.433Z,20.17
2019-03-22T03:41:53.705Z,24.87
2019-03-22T03:44:42.595Z,21.23
2019-03-22T03:47:30.842Z,19.30
2019-03-22T03:50:18.754Z,18.83
2019-03-22T03:53:07.077Z,21.83
2019-03-22T03:55:55.204Z,19.70
2019-03-22T03:58:52.105Z,22.40
2019-03-22T04:01:33.623Z,21.67
2019-03-22T04:04:21.451Z,21.10
2019-03-22T04:07:09.718Z,26.70
2019-03-22T04:09:58.396Z,19.53
2019-03-22T04:12:46.623Z,23.03
2019-03-22T04:15:34.930Z,21.70
2019-03-22T04:18:23.494Z,22.30
2019-03-22T04:21:11.392Z,21.80
2019-03-22T04:23:59.785Z,22.30
2019-03-22T04:26:48.341Z,23.60
2019-03-22T04:29:36.716Z,22.97
2019-03-22T04:32:24.865Z,24.23
2019-03-22T04:35:12.929Z,22.13
2019-03-22T04:38:01.448Z,24.97
2019-03-22T04:40:49.895Z,24.73
2019-03-22T04:43:38.075Z,25.73
2019-03-22T04:46:26.931Z,33.67
2019-03-22T04:49:15.670Z,24.80
2019-03-22T04:52:04.354Z,24.80
2019-03-22T04:54:53.957Z,22.00
2019-03-22T04:57:43.442Z,24.27
2019-03-22T05:00:31.665Z,23.87
2019-03-22T05:03:21.462Z,28.93
2019-03-22T05:06:11.227Z,27.03
2019-03-22T05:09:00.299Z,27.60
2019-03-22T05:11:49.625Z,25.53
2019-03-22T05:14:40.100Z,26.77
2019-03-22T05:17:28.754Z,25.43
2019-03-22T05:20:17.569Z,25.57
2019-03-22T05:23:06.652Z,26.00
2019-03-22T05:25:55.966Z,25.20
2019-03-22T05:28:44.215Z,24.80
2019-03-22T05:32:06.570Z,23.33
2019-03-22T05:34:55.221Z,22.73
2019-03-22T05:37:43.381Z,24.43
2019-03-22T05:40:31.412Z,26.40
2019-03-22T05:43:19.858Z,24.30
2019-03-22T05:46:08.324Z,23.67
2019-03-22T05:48:56.614Z,23.87
2019-03-22T05:51:44.968Z,23.67
2019-03-22T05:54:33.546Z,24.30
2019-03-22T05:57:21.502Z,23.13
2019-03-22T06:00:10.023Z,26.97
2019-03-22T06:02:58.448Z,20.63
2019-03-22T06:05:46.776Z,24.97
2019-03-22T06:08:35.261Z,25.33
2019-03-22T06:11:23.822Z,19.87
2019-03-22T06:14:12.045Z,22.77
2019-03-22T06:17:00.369Z,23.87
2019-03-22T06:19:48.566Z,19.60
2019-03-22T06:22:37.063Z,22.03
2019-03-22T06:25:24.964Z,22.47
2019-03-22T06:28:13.619Z,21.00
2019-03-22T06:31:01.661Z,22.97
2019-03-22T06:33:49.983Z,20.93
2019-03-22T06:36:38.224Z,20.90
2019-03-22T06:39:26.369Z,20.60
2019-03-22T06:42:15.095Z,19.40
2019-03-22T06:45:03.506Z,23.17
2019-03-22T06:47:51.545Z,21.70
2019-03-22T06:50:39.967Z,17.57
2019-03-22T06:53:28.106Z,21.07
2019-03-22T06:56:16.707Z,23.23
2019-03-22T06:59:05.001Z,22.00
2019-03-22T07:01:53.470Z,21.03
2019-03-22T07:04:41.693Z,24.50
2019-03-22T07:07:29.555Z,26.30
2019-03-22T07:10:17.576Z,21.30
2019-03-22T07:13:05.876Z,23.03
2019-03-22T07:15:54.505Z,23.17
2019-03-22T07:18:43.183Z,22.87
2019-03-22T07:21:31.533Z,21.47
2019-03-22T07:24:20.577Z,22.17
2019-03-22T07:27:09.014Z,20.57
2019-03-22T07:29:57.785Z,20.40
2019-03-22T07:32:46.375Z,23.03
2019-03-22T07:35:34.948Z,18.40
2019-03-22T07:38:22.903Z,22.20
2019-03-22T07:41:11.353Z,21.60
2019-03-22T07:43:59.790Z,19.67
2019-03-22T07:46:48.317Z,21.87
2019-03-22T07:49:36.573Z,21.37
2019-03-22T07:52:25.057Z,30.30
2019-03-22T07:55:13.773Z,21.27
2019-03-22T07:58:02.174Z,23.67
2019-03-22T08:00:50.441Z,22.87
2019-03-22T08:03:38.795Z,25.00
2019-03-22T08:06:26.851Z,22.23
2019-03-22T08:09:15.436Z,22.03
2019-03-22T08:12:03.917Z,21.93
2019-03-22T08:14:52.347Z,23.20
2019-03-22T08:17:40.895Z,23.70
2019-03-22T08:20:29.336Z,24.77
2019-03-22T08:23:24.863Z,22.20
2019-03-22T08:26:12.709Z,24.07
2019-03-22T08:29:01.017Z,26.27
2019-03-22T08:31:49.750Z,24.37
2019-03-22T08:34:37.964Z,22.50
2019-03-22T08:37:26.336Z,24.17
2019-03-22T08:40:14.615Z,23.93
2019-03-22T08:43:03.118Z,22.73
2019-03-22T08:45:51.604Z,20.97
2019-03-22T08:48:40.403Z,25.97
2019-03-22T08:51:29.862Z,23.53
2019-03-22T08:54:18.578Z,26.87
2019-03-22T08:57:06.481Z,26.87
2019-03-22T08:59:54.456Z,24.13
2019-03-22T09:02:42.974Z,25.90
2019-03-22T09:05:31.437Z,27.83
2019-03-22T09:08:20.252Z,25.73
2019-03-22T09:11:08.378Z,26.13
2019-03-22T09:13:56.651Z,30.63
2019-03-22T09:16:44.950Z,27.80
2019-03-22T09:19:33.310Z,25.93
2019-03-22T09:22:21.667Z,26.63
2019-03-22T09:25:10.208Z,23.40
2019-03-22T09:27:58.922Z,26.53
2019-03-22T09:30:47.458Z,25.13
2019-03-22T09:33:35.499Z,28.37
2019-03-22T09:36:24.111Z,27.93
2019-03-22T09:39:12.690Z,24.90
2019-03-22T09:42:00.952Z,31.10
2019-03-22T09:44:49.719Z,27.00
2019-03-22T09:47:38.401Z,27.70
2019-03-22T09:50:26.597Z,26.23
2019-03-22T09:53:14.993Z,26.00
2019-03-22T09:56:03.533Z,24.67
2019-03-22T09:58:51.877Z,30.47
2019-03-22T10:01:40.114Z,26.13
2019-03-22T10:04:28.580Z,29.20
2019-03-22T10:07:16.999Z,25.57
2019-03-22T10:10:06.054Z,25.83
2019-03-22T10:12:54.769Z,25.77
2019-03-22T10:15:43.160Z,24.93
2019-03-22T10:18:31.535Z,25.37
2019-03-22T10:21:22.786Z,27.30
2019-03-22T10:24:10.052Z,25.07
2019-03-22T10:26:58.518Z,30.13
2019-03-22T10:29:46.830Z,27.57
2019-03-22T10:32:35.195Z,25.57
2019-03-22T10:35:26.329Z,28.10
2019-03-22T10:38:16.514Z,25.13
2019-03-22T10:41:03.777Z,25.20
2019-03-22T10:43:52.040Z,28.30
2019-03-22T10:46:40.656Z,27.77
2019-03-22T10:49:28.748Z,28.60
2019-03-22T10:52:18.076Z,25.37
2019-03-22T10:55:23.210Z,26.33
2019-03-22T10:57:56.439Z,29.03
2019-03-22T11:00:44.907Z,28.93
2019-03-22T11:03:33.290Z,31.17
2019-03-22T11:06:26.122Z,25.43
2019-03-22T11:09:11.207Z,28.97
2019-03-22T11:11:59.757Z,29.30
2019-03-22T11:14:48.106Z,28.03
2019-03-22T11:17:36.311Z,25.33
2019-03-22T11:20:24.651Z,28.43
2019-03-22T11:23:12.960Z,27.87
2019-03-22T11:26:04.361Z,26.60
2019-03-22T11:28:52.120Z,29.10
2019-03-22T11:31:40.476Z,30.77
2019-03-22T11:34:28.848Z,31.60
2019-03-22T11:37:17.116Z,27.97
2019-03-22T11:40:07.548Z,27.17
2019-03-22T11:42:55.840Z,29.03
2019-03-22T11:45:43.683Z,33.90
2019-03-22T11:48:32.124Z,34.13
2019-03-22T11:51:20.655Z,31.20
2019-03-22T11:54:08.863Z,29.33
2019-03-22T11:56:56.757Z,31.00
2019-03-22T11:59:45.282Z,36.10
2019-03-22T12:02:33.589Z,29.17
2019-03-22T12:05:22.001Z,32.23
2019-03-22T12:08:09.918Z,27.23
2019-03-22T12:10:58.502Z,28.17
2019-03-22T12:13:46.905Z,28.53
2019-03-22T12:16:34.851Z,31.17
2019-03-22T12:19:23.052Z,25.57
2019-03-22T12:22:11.558Z,28.43
2019-03-22T12:24:59.997Z,28.00
2019-03-22T12:27:48.755Z,27.43
2019-03-22T12:30:36.902Z,27.83
2019-03-22T12:33:24.944Z,28.50
2019-03-22T12:36:13.637Z,30.53
2019-03-22T12:39:02.340Z,28.43
2019-03-22T12:41:50.193Z,29.87
2019-03-22T12:44:38.798Z,30.73
2019-03-22T12:47:27.424Z,25.47
2019-03-22T12:50:15.703Z,32.40
2019-03-22T12:53:04.040Z,29.57
2019-03-22T12:55:52.720Z,29.37
2019-03-22T12:58:40.915Z,28.57
2019-03-22T13:01:29.216Z,31.93
2019-03-22T13:04:17.183Z,27.30
2019-03-22T13:07:05.628Z,27.87
2019-03-22T13:09:54.245Z,33.37
2019-03-22T13:12:42.869Z,33.07
2019-03-22T13:15:30.943Z,29.10
2019-03-22T13:18:19.239Z,27.97
2019-03-22T13:21:07.356Z,34.57
2019-03-22T13:23:55.534Z,29.90
2019-03-22T13:26:43.719Z,27.67
2019-03-22T13:29:32.310Z,27.87
2019-03-22T13:32:20.312Z,31.13
2019-03-22T13:35:08.951Z,27.90
2019-03-22T13:37:57.139Z,29.07
2019-03-22T13:40:45.498Z,29.13
2019-03-22T13:43:34.004Z,29.20
2019-03-22T13:46:22.826Z,27.50
2019-03-22T13:49:10.976Z,31.53
2019-03-22T13:51:59.540Z,30.27
2019-03-22T13:54:48.008Z,31.50
2019-03-22T13:57:36.549Z,27.63
2019-03-22T14:00:24.378Z,25.10
2019-03-22T14:03:12.233Z,25.60
2019-03-22T14:06:00.587Z,27.40
2019-03-22T14:08:49.217Z,28.27
2019-03-22T14:11:37.643Z,26.87
2019-03-22T14:14:25.557Z,26.73
2019-03-22T14:17:13.893Z,27.60
2019-03-22T14:20:10.974Z,28.17
2019-03-22T14:22:53.887Z,27.40
2019-03-22T14:25:42.285Z,33.50
2019-03-22T14:28:30.424Z,28.50
2019-03-22T14:31:18.547Z,31.33
2019-03-22T14:34:07.019Z,29.83
2019-03-22T14:36:54.956Z,30.03
2019-03-22T14:39:43.102Z,31.13
2019-03-22T14:42:31.598Z,27.63
2019-03-22T14:45:20.237Z,29.97
2019-03-22T14:48:08.745Z,30.00
2019-03-22T14:50:57.009Z,31.33
2019-03-22T14:53:46.476Z,29.90
2019-03-22T14:56:34.857Z,29.73
2019-03-22T14:59:23.507Z,32.90
2019-03-22T15:02:11.664Z,30.43
2019-03-22T15:04:59.760Z,30.83
2019-03-22T15:07:47.633Z,30.40
2019-03-22T15:10:35.637Z,29.93
2019-03-22T15:13:42.656Z,30.00
2019-03-22T15:16:50.116Z,29.37
2019-03-22T15:19:57.686Z,31.30
2019-03-22T15:23:03.458Z,33.17
2019-03-22T15:26:09.361Z,26.80
2019-03-22T15:29:21.121Z,30.47
2019-03-22T15:32:17.773Z,30.27
2019-03-22T15:35:23.748Z,30.60
2019-03-22T15:38:29.704Z,33.70
2019-03-22T15:41:17.920Z,30.07
2019-03-22T15:44:06.647Z,28.17
2019-03-22T15:46:55.402Z,25.50
2019-03-22T15:49:43.996Z,25.17
2019-03-22T15:52:32.879Z,30.73
2019-03-22T15:55:21.301Z,27.13
2019-03-22T15:58:09.379Z,29.47
2019-03-22T16:00:57.427Z,30.83
2019-03-22T16:03:45.666Z,26.50
2019-03-22T16:06:34.796Z,30.30
2019-03-22T16:09:22.880Z,28.63
2019-03-22T16:12:10.819Z,29.07
2019-03-22T16:14:59.381Z,28.43
2019-03-22T16:17:47.730Z,28.03
2019-03-22T16:20:36.664Z,27.17
2019-03-22T16:23:24.990Z,24.97
2019-03-22T16:26:13.450Z,24.57
2019-03-22T16:29:01.389Z,28.60
2019-03-22T16:31:49.809Z,27.17
2019-03-22T16:34:38.120Z,25.90
2019-03-22T16:37:26.550Z,29.23
2019-03-22T16:40:23.843Z,27.73
2019-03-22T16:43:04.599Z,28.70
2019-03-22T16:45:52.947Z,24.50
2019-03-22T16:48:42.971Z,30.00
2019-03-22T16:51:31.155Z,30.87
2019-03-22T16:54:19.323Z,28.80
2019-03-22T16:57:07.245Z,28.00
2019-03-22T16:59:55.218Z,28.83
2019-03-22T17:02:43.516Z,27.13
2019-03-22T17:05:31.991Z,27.17
2019-03-22T17:08:19.830Z,26.23
2019-03-22T17:11:07.804Z,29.10
2019-03-22T17:13:55.987Z,30.87
2019-03-22T17:16:44.256Z,28.27
2019-03-22T17:19:32.738Z,29.33
2019-03-22T17:22:21.137Z,25.83
2019-03-22T17:25:09.490Z,27.33
2019-03-22T17:27:58.029Z,25.80
2019-03-22T17:30:46.252Z,24.70
2019-03-22T17:33:34.413Z,25.33
2019-03-22T17:36:22.658Z,26.80
2019-03-22T17:39:10.687Z,24.40
2019-03-22T17:41:59.152Z,29.83
2019-03-22T17:44:47.292Z,27.90
2019-03-22T17:47:35.562Z,29.40
2019-03-22T17:50:24.078Z,28.70
2019-03-22T17:53:12.644Z,27.30
2019-03-22T17:56:01.078Z,26.63
2019-03-22T17:58:49.338Z,22.93
2019-03-22T18:01:37.854Z,29.03
2019-03-22T18:04:26.292Z,23.47
2019-03-22T18:07:14.479Z,27.40
2019-03-22T18:10:02.823Z,26.43
2019-03-22T18:12:51.529Z,32.53
2019-03-22T18:15:40.318Z,24.13
2019-03-22T18:18:28.884Z,25.53
2019-03-22T18:21:17.218Z,31.17
2019-03-22T18:24:05.852Z,26.77
2019-03-22T18:26:54.789Z,22.80
2019-03-22T18:29:42.976Z,27.37
2019-03-22T18:32:31.336Z,23.83
2019-03-22T18:35:19.312Z,25.47
2019-03-22T18:38:08.035Z,24.57
2019-03-22T18:40:56.508Z,23.70
2019-03-22T18:43:44.918Z,23.43
2019-03-22T18:46:33.185Z,27.40
2019-03-22T18:49:22.165Z,23.33
2019-03-22T18:52:10.135Z,25.33
2019-03-22T18:54:58.351Z,28.70
2019-03-22T18:57:46.716Z,26.57
2019-03-22T19:00:34.629Z,26.87
2019-03-22T19:03:24.416Z,26.60
2019-03-22T19:06:12.442Z,24.40
2019-03-22T19:09:00.711Z,26.93
2019-03-22T19:11:48.919Z,27.53
2019-03-22T19:14:37.392Z,26.67
2019-03-22T19:17:25.729Z,28.83
2019-03-22T19:20:14.643Z,26.53
2019-03-22T19:23:03.144Z,29.43
2019-03-22T19:25:51.100Z,29.17
2019-03-22T19:28:40.026Z,27.37
2019-03-22T19:31:28.272Z,24.03
2019-03-22T19:34:16.429Z,27.10
2019-03-22T19:37:04.313Z,28.93
2019-03-22T19:39:52.823Z,25.40
2019-03-22T19:42:41.666Z,27.70
2019-03-22T19:45:29.741Z,25.47
2019-03-22T19:48:18.037Z,27.70
2019-03-22T19:51:06.605Z,26.50
2019-03-22T19:53:54.998Z,30.87
2019-03-22T19:56:43.147Z,31.67
2019-03-22T19:59:31.712Z,25.63
2019-03-22T20:02:20.038Z,25.03
2019-03-22T20:05:08.759Z,29.70
2019-03-22T20:07:57.567Z,28.90
2019-03-22T20:10:45.685Z,26.33
2019-03-22T20:13:33.758Z,28.33
2019-03-22T20:16:22.140Z,29.23
2019-03-22T20:19:10.835Z,30.77
2019-03-22T20:21:59.524Z,25.83
2019-03-22T20:24:48.013Z,26.67
2019-03-22T20:27:36.243Z,27.87
2019-03-22T20:30:24.245Z,27.60
2019-03-22T20:33:13.006Z,24.13
2019-03-22T20:36:01.511Z,28.03
2019-03-22T20:38:51.129Z,28.97
2019-03-22T20:41:39.277Z,27.17
2019-03-22T20:44:33.903Z,28.57
2019-03-22T20:47:18.113Z,25.17
2019-03-22T20:50:06.844Z,28.27
2019-03-22T20:52:54.640Z,23.13
2019-03-22T20:55:42.887Z,21.03
2019-03-22T20:58:31.629Z,23.93
2019-03-22T21:01:20.277Z,22.90
2019-03-22T21:04:08.621Z,25.27
2019-03-22T21:06:56.526Z,23.87
2019-03-22T21:09:44.724Z,21.97
2019-03-22T21:12:32.916Z,22.97
2019-03-22T21:15:24.657Z,24.93
2019-03-22T21:18:11.116Z,21.63
2019-03-22T21:20:59.685Z,22.20
2019-03-22T21:23:47.738Z,23.53
2019-03-22T21:26:36.449Z,28.70
2019-03-22T21:29:24.617Z,24.10
2019-03-22T21:32:12.549Z,26.40
2019-03-22T21:35:00.548Z,23.73
2019-03-22T21:37:48.567Z,24.10
2019-03-22T21:40:36.929Z,21.63
2019-03-22T21:43:25.531Z,25.33
2019-03-22T21:46:14.222Z,29.27
2019-03-22T21:49:02.573Z,24.03
2019-03-22T21:51:51.252Z,22.60
2019-03-22T21:54:40.020Z,25.43
2019-03-22T21:57:28.352Z,25.33
2019-03-22T22:00:16.987Z,23.00
2019-03-22T22:03:05.478Z,26.00
2019-03-22T22:05:53.684Z,25.67
2019-03-22T22:08:41.874Z,22.90
2019-03-22T22:11:30.134Z,21.67
2019-03-22T22:14:18.370Z,25.20
2019-03-22T22:17:06.708Z,23.37
2019-03-22T22:19:54.693Z,24.00
2019-03-22T22:22:42.964Z,24.93
2019-03-22T22:25:31.273Z,22.93
2019-03-22T22:28:19.972Z,22.23
2019-03-22T22:31:08.139Z,21.50
2019-03-22T22:33:56.044Z,20.60
2019-03-22T22:36:44.379Z,22.87
2019-03-22T22:39:32.790Z,20.07
2019-03-22T22:42:21.442Z,26.80
2019-03-22T22:45:11.476Z,20.20
2019-03-22T22:48:00.062Z,21.43
2019-03-22T22:50:48.329Z,25.10
2019-03-22T22:53:36.216Z,24.07
2019-03-22T22:56:24.846Z,20.50
2019-03-22T22:59:13.455Z,22.80
2019-03-22T23:02:01.952Z,22.90
2019-03-22T23:04:50.129Z,20.53
2019-03-22T23:07:38.206Z,20.17
2019-03-22T23:10:26.455Z,20.90
2019-03-22T23:13:14.453Z,18.03
2019-03-22T23:16:02.646Z,24.33
2019-03-22T23:18:51.106Z,21.13
2019-03-22T23:21:40.125Z,19.33
2019-03-22T23:24:28.342Z,23.60
2019-03-22T23:27:16.868Z,21.17
2019-03-22T23:30:05.676Z,23.13
2019-03-22T23:32:54.320Z,19.00
2019-03-22T23:35:42.839Z,19.67
2019-03-22T23:38:31.059Z,15.60
2019-03-22T23:41:19.140Z,16.60
2019-03-22T23:44:07.893Z,19.70
2019-03-22T23:46:56.419Z,20.50
2019-03-22T23:49:44.342Z,16.33
2019-03-22T23:52:32.616Z,19.10
2019-03-22T23:55:20.628Z,16.80
2019-03-22T23:58:08.908Z,19.60
